BWA425 KJFK-TTPP
Flight info
| Callsign | BWA425 |
|---|---|
| Flight time | 4h 19m |
| Altitude | 37000 |
| Route | SHIPP Y489 OHRYN/N0476F360 Y489 BEHHR/M083F360 Y489 RESQU/M083F370 DCT SKPPR L455 MACOR/M083F390 L455 KINCH/N0479F390 DCT ANADA UG449 PERGA DCT ITRAK DCT NAPKO DCT LEXOR DCT TALUS |
| Aircraft | L101/H-SDFHIRWXY/S |
Departure
| Time | 2026-05-05 10:55 |
|---|---|
| Airport | John F. Kennedy International Airport (KJFK) |
Arrival
| Time | 2026-05-05 15:15 |
|---|---|
| Airport | Piarco International Airport (TTPP) |
| Time | Latitude | Longitude | Altitude | Speed | Heading |
|---|---|---|---|---|---|
| 2026-05-05 10:11 | 40.63956 | -73.78043 | 28 ft | 0 kts | 263° |
| 2026-05-05 10:40 | 40.63956 | -73.78038 | 28 ft | 3 kts | 263° |
| 2026-05-05 10:41 | 40.63959 | -73.78003 | 26 ft | 4 kts | 263° |
| 2026-05-05 10:41 | 40.63962 | -73.77975 | 27 ft | 4 kts | 251° |
| 2026-05-05 10:41 | 40.63976 | -73.77951 | 27 ft | 4 kts | 193° |
| 2026-05-05 10:41 | 40.63996 | -73.77951 | 26 ft | 4 kts | 178° |
| 2026-05-05 10:42 | 40.64033 | -73.77920 | 26 ft | 4 kts | 240° |
| 2026-05-05 10:42 | 40.64047 | -73.77888 | 28 ft | 4 kts | 240° |
| 2026-05-05 10:42 | 40.64060 | -73.77857 | 26 ft | 4 kts | 240° |
| 2026-05-05 10:43 | 40.64070 | -73.77833 | 27 ft | 4 kts | 240° |
| 2026-05-05 10:43 | 40.64078 | -73.77815 | 27 ft | 0 kts | 240° |
| 2026-05-05 10:47 | 40.64070 | -73.77832 | 27 ft | 4 kts | 240° |
| 2026-05-05 10:48 | 40.64051 | -73.77878 | 28 ft | 7 kts | 240° |
| 2026-05-05 10:48 | 40.64016 | -73.77940 | 27 ft | 9 kts | 207° |
| 2026-05-05 10:48 | 40.63949 | -73.77943 | 26 ft | 11 kts | 174° |
| 2026-05-05 10:48 | 40.63863 | -73.77929 | 28 ft | 14 kts | 173° |
| 2026-05-05 10:49 | 40.63761 | -73.77913 | 28 ft | 16 kts | 173° |
| 2026-05-05 10:49 | 40.63642 | -73.77894 | 28 ft | 18 kts | 173° |
| 2026-05-05 10:49 | 40.63561 | -73.77837 | 26 ft | 14 kts | 126° |
| 2026-05-05 10:49 | 40.63517 | -73.77740 | 27 ft | 7 kts | 115° |
| 2026-05-05 10:50 | 40.63542 | -73.77681 | 30 ft | 10 kts | 35° |
| 2026-05-05 10:50 | 40.63614 | -73.77624 | 28 ft | 14 kts | 31° |
| 2026-05-05 10:50 | 40.63708 | -73.77550 | 25 ft | 18 kts | 31° |
| 2026-05-05 10:50 | 40.63824 | -73.77459 | 26 ft | 20 kts | 31° |
| 2026-05-05 10:51 | 40.63935 | -73.77373 | 28 ft | 19 kts | 31° |
| 2026-05-05 10:51 | 40.64052 | -73.77281 | 27 ft | 21 kts | 30° |
| 2026-05-05 10:51 | 40.64178 | -73.77183 | 30 ft | 22 kts | 31° |
| 2026-05-05 10:51 | 40.64320 | -73.77071 | 28 ft | 24 kts | 30° |
| 2026-05-05 10:52 | 40.64458 | -73.76990 | 27 ft | 15 kts | 3° |
| 2026-05-05 10:52 | 40.64551 | -73.76959 | 24 ft | 15 kts | 31° |
| 2026-05-05 10:52 | 40.64647 | -73.76879 | 23 ft | 18 kts | 30° |
| 2026-05-05 10:52 | 40.64763 | -73.76788 | 25 ft | 20 kts | 30° |
| 2026-05-05 10:53 | 40.64883 | -73.76695 | 26 ft | 20 kts | 31° |
| 2026-05-05 10:53 | 40.65012 | -73.76594 | 31 ft | 23 kts | 31° |
| 2026-05-05 10:53 | 40.65093 | -73.76523 | 26 ft | 11 kts | 54° |
| 2026-05-05 10:53 | 40.65081 | -73.76432 | 27 ft | 10 kts | 121° |
| 2026-05-05 10:54 | 40.65041 | -73.76362 | 27 ft | 6 kts | 149° |
| 2026-05-05 10:54 | 40.64996 | -73.76378 | 27 ft | 8 kts | 208° |
| 2026-05-05 10:54 | 40.64975 | -73.76394 | 27 ft | 0 kts | 210° |
| 2026-05-05 10:54 | 40.64970 | -73.76398 | 27 ft | 5 kts | 210° |
| 2026-05-05 10:55 | 40.64756 | -73.76566 | 27 ft | 77 kts | 210° |
| 2026-05-05 10:55 | 40.64040 | -73.77122 | 40 ft | 157 kts | 210° |
| 2026-05-05 10:55 | 40.63087 | -73.77865 | 949 ft | 166 kts | 210° |
| 2026-05-05 10:55 | 40.62046 | -73.78630 | 1998 ft | 171 kts | 213° |
| 2026-05-05 10:56 | 40.60962 | -73.79363 | 3029 ft | 180 kts | 212° |
| 2026-05-05 10:56 | 40.59771 | -73.79905 | 4106 ft | 186 kts | 193° |
| 2026-05-05 10:56 | 40.58520 | -73.79555 | 5341 ft | 186 kts | 162° |
| 2026-05-05 10:56 | 40.57482 | -73.78453 | 6311 ft | 198 kts | 140° |
| 2026-05-05 10:57 | 40.56700 | -73.76943 | 7180 ft | 208 kts | 117° |
| 2026-05-05 10:57 | 40.56272 | -73.75067 | 7983 ft | 215 kts | 108° |
| 2026-05-05 10:57 | 40.55893 | -73.73163 | 8947 ft | 214 kts | 107° |
| 2026-05-05 10:57 | 40.55493 | -73.71151 | 9449 ft | 251 kts | 108° |
| 2026-05-05 10:58 | 40.54979 | -73.68730 | 9519 ft | 295 kts | 108° |
| 2026-05-05 10:58 | 40.54398 | -73.66058 | 9499 ft | 311 kts | 108° |
| 2026-05-05 10:58 | 40.53819 | -73.63231 | 9911 ft | 329 kts | 105° |
| 2026-05-05 10:58 | 40.53170 | -73.60321 | 10631 ft | 337 kts | 114° |
| 2026-05-05 10:59 | 40.52106 | -73.57479 | 10933 ft | 359 kts | 124° |
| 2026-05-05 10:59 | 40.50637 | -73.54691 | 11047 ft | 383 kts | 130° |
| 2026-05-05 10:59 | 40.48937 | -73.51883 | 11318 ft | 399 kts | 132° |
| 2026-05-05 10:59 | 40.47199 | -73.49030 | 12198 ft | 397 kts | 131° |
| 2026-05-05 11:00 | 40.45523 | -73.46176 | 13277 ft | 394 kts | 130° |
| 2026-05-05 11:00 | 40.43845 | -73.43261 | 13785 ft | 408 kts | 130° |
| 2026-05-05 11:00 | 40.42123 | -73.40250 | 14366 ft | 414 kts | 130° |
| 2026-05-05 11:00 | 40.40411 | -73.37243 | 15423 ft | 407 kts | 130° |
| 2026-05-05 11:01 | 40.38709 | -73.34259 | 16158 ft | 412 kts | 130° |
| 2026-05-05 11:01 | 40.36965 | -73.31215 | 16749 ft | 419 kts | 130° |
| 2026-05-05 11:01 | 40.35242 | -73.28208 | 17630 ft | 418 kts | 130° |
| 2026-05-05 11:01 | 40.33461 | -73.25111 | 18329 ft | 422 kts | 130° |
| 2026-05-05 11:02 | 40.31775 | -73.21997 | 19002 ft | 426 kts | 128° |
| 2026-05-05 11:02 | 40.30112 | -73.18755 | 19638 ft | 431 kts | 127° |
| 2026-05-05 11:02 | 40.28446 | -73.15459 | 20319 ft | 435 kts | 127° |
| 2026-05-05 11:02 | 40.26767 | -73.12136 | 21030 ft | 440 kts | 127° |
| 2026-05-05 11:03 | 40.25069 | -73.08775 | 21738 ft | 444 kts | 126° |
| 2026-05-05 11:03 | 40.23364 | -73.05385 | 22450 ft | 449 kts | 126° |
| 2026-05-05 11:03 | 40.21639 | -73.01951 | 23132 ft | 454 kts | 126° |
| 2026-05-05 11:03 | 40.19890 | -72.98478 | 23768 ft | 458 kts | 126° |
| 2026-05-05 11:04 | 40.18134 | -72.94983 | 24373 ft | 461 kts | 126° |
| 2026-05-05 11:04 | 40.16370 | -72.91463 | 25005 ft | 464 kts | 126° |
| 2026-05-05 11:04 | 40.14614 | -72.87958 | 25446 ft | 472 kts | 126° |
| 2026-05-05 11:04 | 40.12784 | -72.84321 | 25558 ft | 486 kts | 126° |
| 2026-05-05 11:05 | 40.10907 | -72.80575 | 25705 ft | 498 kts | 125° |
| 2026-05-05 11:05 | 40.09078 | -72.76713 | 26341 ft | 499 kts | 123° |
| 2026-05-05 11:05 | 40.07342 | -72.72825 | 27292 ft | 493 kts | 122° |
| 2026-05-05 11:05 | 40.05618 | -72.68945 | 28149 ft | 490 kts | 122° |
| 2026-05-05 11:06 | 40.03892 | -72.65134 | 29016 ft | 487 kts | 123° |
| 2026-05-05 11:06 | 40.02166 | -72.61359 | 29910 ft | 484 kts | 122° |
| 2026-05-05 11:06 | 40.00456 | -72.57608 | 30734 ft | 480 kts | 122° |
| 2026-05-05 11:06 | 39.98747 | -72.53852 | 31321 ft | 481 kts | 122° |
| 2026-05-05 11:07 | 39.97044 | -72.50080 | 31813 ft | 484 kts | 122° |
| 2026-05-05 11:07 | 39.95357 | -72.46273 | 32365 ft | 486 kts | 121° |
| 2026-05-05 11:07 | 39.93684 | -72.42467 | 33150 ft | 483 kts | 121° |
| 2026-05-05 11:07 | 39.92003 | -72.38650 | 33588 ft | 487 kts | 121° |
| 2026-05-05 11:08 | 39.90886 | -72.36121 | 34013 ft | 486 kts | 121° |
| 2026-05-05 11:08 | 39.89194 | -72.32282 | 34426 ft | 489 kts | 121° |
| 2026-05-05 11:08 | 39.86952 | -72.27199 | 35165 ft | 488 kts | 121° |
| 2026-05-05 11:08 | 39.85269 | -72.23381 | 35788 ft | 486 kts | 121° |
| 2026-05-05 11:09 | 39.83585 | -72.19568 | 36313 ft | 486 kts | 121° |
| 2026-05-05 11:09 | 39.81898 | -72.15748 | 36728 ft | 490 kts | 121° |
| 2026-05-05 11:09 | 39.80765 | -72.13185 | 36877 ft | 492 kts | 121° |
| 2026-05-05 11:10 | 39.76785 | -72.04209 | 37025 ft | 493 kts | 122° |
| 2026-05-05 11:10 | 39.74847 | -72.00551 | 36984 ft | 489 kts | 133° |
| 2026-05-05 11:10 | 39.73270 | -71.98394 | 37004 ft | 485 kts | 139° |
| 2026-05-05 11:11 | 39.68351 | -71.92367 | 37037 ft | 487 kts | 137° |
| 2026-05-05 11:11 | 39.63555 | -71.86204 | 37043 ft | 488 kts | 138° |
| 2026-05-05 11:12 | 39.58624 | -71.80148 | 37049 ft | 487 kts | 139° |
| 2026-05-05 11:12 | 39.53623 | -71.74214 | 37048 ft | 486 kts | 144° |
| 2026-05-05 11:12 | 39.50786 | -71.71881 | 37005 ft | 478 kts | 159° |
| 2026-05-05 11:13 | 39.47706 | -71.70324 | 37082 ft | 474 kts | 163° |
| 2026-05-05 11:13 | 39.41565 | -71.67171 | 37067 ft | 479 kts | 160° |
| 2026-05-05 11:14 | 39.35387 | -71.63940 | 37061 ft | 478 kts | 162° |
| 2026-05-05 11:14 | 39.29130 | -71.61038 | 37068 ft | 477 kts | 163° |
| 2026-05-05 11:15 | 39.22886 | -71.58252 | 37065 ft | 476 kts | 168° |
| 2026-05-05 11:15 | 39.16403 | -71.57205 | 37092 ft | 468 kts | 180° |
| 2026-05-05 11:16 | 39.09883 | -71.56598 | 37077 ft | 471 kts | 178° |
| 2026-05-05 11:16 | 39.03342 | -71.55933 | 37087 ft | 470 kts | 179° |
| 2026-05-05 11:17 | 38.96811 | -71.55484 | 37089 ft | 470 kts | 180° |
| 2026-05-05 11:17 | 38.90276 | -71.55071 | 37090 ft | 470 kts | 180° |
| 2026-05-05 11:18 | 38.83754 | -71.54657 | 37097 ft | 469 kts | 180° |
| 2026-05-05 11:18 | 38.77257 | -71.54264 | 37107 ft | 469 kts | 180° |
| 2026-05-05 11:19 | 38.70728 | -71.53876 | 37106 ft | 469 kts | 180° |
| 2026-05-05 11:19 | 38.64201 | -71.53482 | 37105 ft | 469 kts | 180° |
| 2026-05-05 11:20 | 38.57716 | -71.53092 | 37112 ft | 469 kts | 181° |
| 2026-05-05 11:20 | 38.51193 | -71.52800 | 37114 ft | 469 kts | 179° |
| 2026-05-05 11:21 | 38.44669 | -71.52160 | 37118 ft | 470 kts | 179° |
| 2026-05-05 11:21 | 38.38151 | -71.51591 | 37117 ft | 469 kts | 179° |
| 2026-05-05 11:22 | 38.31672 | -71.51079 | 37109 ft | 469 kts | 180° |
| 2026-05-05 11:22 | 38.25146 | -71.50572 | 37133 ft | 468 kts | 180° |
| 2026-05-05 11:23 | 38.18641 | -71.50058 | 37134 ft | 468 kts | 180° |
| 2026-05-05 11:23 | 38.12127 | -71.49542 | 37125 ft | 468 kts | 180° |
| 2026-05-05 11:24 | 38.05616 | -71.49034 | 37130 ft | 468 kts | 180° |
| 2026-05-05 11:24 | 37.99157 | -71.48537 | 37141 ft | 468 kts | 180° |
| 2026-05-05 11:25 | 37.92647 | -71.48034 | 37140 ft | 468 kts | 180° |
| 2026-05-05 11:25 | 37.86134 | -71.47520 | 37118 ft | 468 kts | 180° |
| 2026-05-05 11:26 | 37.79667 | -71.47018 | 37149 ft | 468 kts | 180° |
| 2026-05-05 11:26 | 37.73160 | -71.46513 | 37153 ft | 468 kts | 180° |
| 2026-05-05 11:27 | 37.66659 | -71.46029 | 37152 ft | 468 kts | 180° |
| 2026-05-05 11:27 | 37.60162 | -71.45541 | 37155 ft | 467 kts | 180° |
| 2026-05-05 11:28 | 37.53665 | -71.45031 | 37164 ft | 467 kts | 180° |
| 2026-05-05 11:28 | 37.47300 | -71.43244 | 37137 ft | 475 kts | 159° |
| 2026-05-05 11:29 | 37.41279 | -71.39855 | 37168 ft | 477 kts | 162° |
| 2026-05-05 11:29 | 37.35098 | -71.36742 | 37158 ft | 478 kts | 161° |
| 2026-05-05 11:30 | 37.29047 | -71.33322 | 37167 ft | 479 kts | 159° |
| 2026-05-05 11:30 | 37.23004 | -71.29778 | 37172 ft | 479 kts | 159° |
| 2026-05-05 11:31 | 37.16960 | -71.26219 | 37173 ft | 479 kts | 159° |
| 2026-05-05 11:31 | 37.10920 | -71.22663 | 37173 ft | 479 kts | 159° |
| 2026-05-05 11:32 | 37.04878 | -71.19110 | 37179 ft | 480 kts | 159° |
| 2026-05-05 11:32 | 36.98818 | -71.15555 | 37176 ft | 480 kts | 159° |
| 2026-05-05 11:33 | 36.92814 | -71.12037 | 37179 ft | 480 kts | 159° |
| 2026-05-05 11:33 | 36.86760 | -71.08494 | 37185 ft | 480 kts | 159° |
| 2026-05-05 11:34 | 36.80707 | -71.04944 | 37182 ft | 480 kts | 159° |
| 2026-05-05 11:34 | 36.74650 | -71.01407 | 37185 ft | 480 kts | 159° |
| 2026-05-05 11:35 | 36.68595 | -70.97887 | 37198 ft | 480 kts | 159° |
| 2026-05-05 11:35 | 36.62581 | -70.94385 | 37178 ft | 480 kts | 159° |
| 2026-05-05 11:36 | 36.56526 | -70.90865 | 37191 ft | 480 kts | 160° |
| 2026-05-05 11:36 | 36.50457 | -70.87349 | 37195 ft | 480 kts | 160° |
| 2026-05-05 11:37 | 36.44423 | -70.83859 | 37203 ft | 480 kts | 160° |
| 2026-05-05 11:37 | 36.38356 | -70.80358 | 37204 ft | 479 kts | 160° |
| 2026-05-05 11:38 | 36.32302 | -70.76874 | 37201 ft | 479 kts | 160° |
| 2026-05-05 11:38 | 36.26262 | -70.73399 | 37207 ft | 479 kts | 160° |
| 2026-05-05 11:39 | 36.20256 | -70.69944 | 37208 ft | 479 kts | 160° |
| 2026-05-05 11:39 | 36.14212 | -70.66475 | 37222 ft | 478 kts | 160° |
| 2026-05-05 11:40 | 36.08167 | -70.63020 | 37211 ft | 478 kts | 161° |
| 2026-05-05 11:40 | 36.02167 | -70.59580 | 37217 ft | 477 kts | 161° |
| 2026-05-05 11:41 | 35.96135 | -70.56122 | 37218 ft | 477 kts | 161° |
| 2026-05-05 11:41 | 35.90102 | -70.52694 | 37215 ft | 476 kts | 161° |
| 2026-05-05 11:42 | 35.84079 | -70.49273 | 37202 ft | 476 kts | 161° |
| 2026-05-05 11:42 | 35.78106 | -70.45934 | 37214 ft | 472 kts | 165° |
| 2026-05-05 11:43 | 35.71844 | -70.43944 | 37227 ft | 462 kts | 174° |
| 2026-05-05 11:43 | 35.65540 | -70.42193 | 37222 ft | 465 kts | 172° |
| 2026-05-05 11:44 | 35.59246 | -70.40370 | 37195 ft | 464 kts | 173° |
| 2026-05-05 11:44 | 35.52946 | -70.38672 | 37219 ft | 463 kts | 173° |
| 2026-05-05 11:45 | 35.46691 | -70.37009 | 37228 ft | 463 kts | 173° |
| 2026-05-05 11:45 | 35.40379 | -70.35331 | 37227 ft | 462 kts | 173° |
| 2026-05-05 11:46 | 35.34077 | -70.33661 | 37213 ft | 462 kts | 174° |
| 2026-05-05 11:46 | 35.27831 | -70.32004 | 37213 ft | 462 kts | 174° |
| 2026-05-05 11:47 | 35.21539 | -70.30348 | 37235 ft | 461 kts | 174° |
| 2026-05-05 11:47 | 35.15255 | -70.28690 | 37238 ft | 461 kts | 174° |
| 2026-05-05 11:48 | 35.05888 | -70.26223 | 37223 ft | 461 kts | 174° |
| 2026-05-05 11:48 | 34.99620 | -70.24583 | 37232 ft | 460 kts | 174° |
| 2026-05-05 11:49 | 34.93363 | -70.22940 | 37232 ft | 459 kts | 174° |
| 2026-05-05 11:49 | 34.87101 | -70.21308 | 37229 ft | 459 kts | 174° |
| 2026-05-05 11:50 | 34.80850 | -70.19674 | 37217 ft | 459 kts | 174° |
| 2026-05-05 11:50 | 34.74667 | -70.18053 | 37226 ft | 456 kts | 174° |
| 2026-05-05 11:51 | 34.68468 | -70.16446 | 37234 ft | 454 kts | 174° |
| 2026-05-05 11:51 | 34.62279 | -70.14843 | 37232 ft | 455 kts | 174° |
| 2026-05-05 11:52 | 34.56089 | -70.13231 | 37225 ft | 454 kts | 175° |
| 2026-05-05 11:52 | 34.49908 | -70.11628 | 37230 ft | 453 kts | 175° |
| 2026-05-05 11:53 | 34.43785 | -70.10049 | 37228 ft | 452 kts | 175° |
| 2026-05-05 11:53 | 34.37626 | -70.08466 | 37229 ft | 452 kts | 175° |
| 2026-05-05 11:54 | 34.31467 | -70.06869 | 37235 ft | 452 kts | 175° |
| 2026-05-05 11:54 | 34.25295 | -70.05272 | 37232 ft | 452 kts | 175° |
| 2026-05-05 11:55 | 34.19138 | -70.03693 | 37230 ft | 452 kts | 175° |
| 2026-05-05 11:55 | 34.13011 | -70.02129 | 37234 ft | 452 kts | 175° |
| 2026-05-05 11:56 | 34.06853 | -70.00531 | 37207 ft | 452 kts | 175° |
| 2026-05-05 11:56 | 34.00704 | -69.98964 | 37224 ft | 450 kts | 175° |
| 2026-05-05 11:57 | 33.94578 | -69.97407 | 37233 ft | 449 kts | 175° |
| 2026-05-05 11:57 | 33.88463 | -69.95840 | 37228 ft | 449 kts | 175° |
| 2026-05-05 11:58 | 33.82391 | -69.94280 | 37199 ft | 449 kts | 175° |
| 2026-05-05 11:58 | 33.76277 | -69.92728 | 37222 ft | 448 kts | 175° |
| 2026-05-05 11:59 | 33.70181 | -69.91168 | 37224 ft | 447 kts | 175° |
| 2026-05-05 11:59 | 33.64117 | -69.89625 | 37221 ft | 447 kts | 175° |
| 2026-05-05 12:00 | 33.58019 | -69.88097 | 37226 ft | 447 kts | 175° |
| 2026-05-05 12:00 | 33.52958 | -69.86814 | 37229 ft | 447 kts | 175° |
| 2026-05-05 12:01 | 33.46875 | -69.85266 | 37216 ft | 445 kts | 176° |
| 2026-05-05 12:01 | 33.40811 | -69.83743 | 37224 ft | 444 kts | 176° |
| 2026-05-05 12:02 | 33.34767 | -69.82230 | 37220 ft | 443 kts | 176° |
| 2026-05-05 12:02 | 33.28761 | -69.80722 | 37196 ft | 443 kts | 176° |
| 2026-05-05 12:03 | 33.22709 | -69.79231 | 37211 ft | 444 kts | 176° |
| 2026-05-05 12:03 | 33.16658 | -69.77736 | 37215 ft | 444 kts | 176° |
| 2026-05-05 12:04 | 33.10609 | -69.76221 | 37217 ft | 444 kts | 176° |
| 2026-05-05 12:04 | 33.04563 | -69.74714 | 37217 ft | 444 kts | 176° |
| 2026-05-05 12:05 | 32.98521 | -69.73194 | 37210 ft | 444 kts | 176° |
| 2026-05-05 12:05 | 32.92508 | -69.71703 | 37212 ft | 444 kts | 176° |
| 2026-05-05 12:06 | 32.86445 | -69.70202 | 37214 ft | 444 kts | 176° |
| 2026-05-05 12:06 | 32.80391 | -69.68672 | 37209 ft | 445 kts | 176° |
| 2026-05-05 12:07 | 32.74336 | -69.67161 | 37203 ft | 445 kts | 176° |
| 2026-05-05 12:07 | 32.68259 | -69.65667 | 37211 ft | 446 kts | 176° |
| 2026-05-05 12:08 | 32.62217 | -69.64174 | 37210 ft | 446 kts | 176° |
| 2026-05-05 12:08 | 32.56132 | -69.62655 | 37208 ft | 446 kts | 176° |
| 2026-05-05 12:09 | 32.50048 | -69.61156 | 37188 ft | 446 kts | 176° |
| 2026-05-05 12:09 | 32.43963 | -69.59671 | 37202 ft | 447 kts | 176° |
| 2026-05-05 12:10 | 32.37869 | -69.58171 | 37208 ft | 447 kts | 176° |
| 2026-05-05 12:10 | 32.31765 | -69.56666 | 37201 ft | 447 kts | 176° |
| 2026-05-05 12:11 | 32.25700 | -69.55164 | 37194 ft | 447 kts | 176° |
| 2026-05-05 12:11 | 32.19606 | -69.53663 | 37195 ft | 448 kts | 176° |
| 2026-05-05 12:12 | 32.13487 | -69.52170 | 37194 ft | 449 kts | 176° |
| 2026-05-05 12:12 | 32.07354 | -69.50660 | 37194 ft | 449 kts | 176° |
| 2026-05-05 12:13 | 32.01266 | -69.49181 | 37196 ft | 449 kts | 176° |
| 2026-05-05 12:13 | 31.95131 | -69.47688 | 37181 ft | 449 kts | 176° |
| 2026-05-05 12:14 | 31.88999 | -69.46193 | 37189 ft | 451 kts | 176° |
| 2026-05-05 12:14 | 31.82858 | -69.44695 | 37195 ft | 451 kts | 176° |
| 2026-05-05 12:15 | 31.76706 | -69.43188 | 37199 ft | 451 kts | 176° |
| 2026-05-05 12:15 | 31.70561 | -69.41692 | 37195 ft | 451 kts | 176° |
| 2026-05-05 12:16 | 31.64413 | -69.40209 | 37189 ft | 451 kts | 176° |
| 2026-05-05 12:16 | 31.58317 | -69.38733 | 37197 ft | 451 kts | 176° |
| 2026-05-05 12:17 | 31.52174 | -69.37248 | 37193 ft | 451 kts | 176° |
| 2026-05-05 12:17 | 31.46016 | -69.35753 | 37192 ft | 451 kts | 176° |
| 2026-05-05 12:18 | 31.39869 | -69.34276 | 37198 ft | 451 kts | 176° |
| 2026-05-05 12:18 | 31.33744 | -69.32803 | 37192 ft | 452 kts | 176° |
| 2026-05-05 12:19 | 31.27587 | -69.31324 | 37179 ft | 452 kts | 176° |
| 2026-05-05 12:19 | 31.21421 | -69.29844 | 37175 ft | 452 kts | 176° |
| 2026-05-05 12:20 | 31.15252 | -69.28360 | 37163 ft | 452 kts | 176° |
| 2026-05-05 12:20 | 31.09072 | -69.26882 | 37185 ft | 453 kts | 176° |
| 2026-05-05 12:21 | 31.02889 | -69.25401 | 37185 ft | 453 kts | 176° |
| 2026-05-05 12:21 | 30.96749 | -69.23936 | 37179 ft | 454 kts | 176° |
| 2026-05-05 12:22 | 30.90551 | -69.22458 | 37182 ft | 453 kts | 176° |
| 2026-05-05 12:22 | 30.84362 | -69.21005 | 37172 ft | 454 kts | 176° |
| 2026-05-05 12:23 | 30.78167 | -69.19560 | 37176 ft | 454 kts | 176° |
| 2026-05-05 12:23 | 30.72015 | -69.18107 | 37166 ft | 453 kts | 176° |
| 2026-05-05 12:24 | 30.65840 | -69.16639 | 37164 ft | 453 kts | 176° |
| 2026-05-05 12:24 | 30.59670 | -69.15176 | 37160 ft | 452 kts | 176° |
| 2026-05-05 12:25 | 30.53483 | -69.13717 | 37167 ft | 453 kts | 176° |
| 2026-05-05 12:25 | 30.47303 | -69.12258 | 37162 ft | 453 kts | 176° |
| 2026-05-05 12:26 | 30.41163 | -69.10810 | 37166 ft | 453 kts | 176° |
| 2026-05-05 12:26 | 30.34983 | -69.09359 | 37165 ft | 452 kts | 176° |
| 2026-05-05 12:27 | 30.28810 | -69.07913 | 37152 ft | 453 kts | 176° |
| 2026-05-05 12:27 | 30.22627 | -69.06464 | 37161 ft | 452 kts | 176° |
| 2026-05-05 12:28 | 30.16489 | -69.05028 | 37160 ft | 453 kts | 176° |
| 2026-05-05 12:28 | 30.10313 | -69.03554 | 37152 ft | 453 kts | 176° |
| 2026-05-05 12:29 | 30.04137 | -69.02109 | 37148 ft | 452 kts | 176° |
| 2026-05-05 12:29 | 29.97961 | -69.00639 | 37149 ft | 452 kts | 177° |
| 2026-05-05 12:30 | 29.91784 | -68.99219 | 37151 ft | 452 kts | 177° |
| 2026-05-05 12:30 | 29.85651 | -68.97769 | 37154 ft | 452 kts | 176° |
| 2026-05-05 12:31 | 29.79471 | -68.96337 | 37151 ft | 452 kts | 177° |
| 2026-05-05 12:31 | 29.73301 | -68.94927 | 37136 ft | 452 kts | 177° |
| 2026-05-05 12:32 | 29.67125 | -68.93480 | 37138 ft | 453 kts | 177° |
| 2026-05-05 12:32 | 29.60974 | -68.92044 | 37148 ft | 452 kts | 177° |
| 2026-05-05 12:33 | 29.54800 | -68.90621 | 37146 ft | 452 kts | 177° |
| 2026-05-05 12:33 | 29.48663 | -68.89186 | 37134 ft | 452 kts | 177° |
| 2026-05-05 12:34 | 29.42486 | -68.87766 | 37139 ft | 452 kts | 177° |
| 2026-05-05 12:34 | 29.36309 | -68.86323 | 37142 ft | 452 kts | 177° |
| 2026-05-05 12:35 | 29.30137 | -68.84886 | 37132 ft | 452 kts | 178° |
| 2026-05-05 12:35 | 29.24018 | -68.83488 | 37135 ft | 451 kts | 178° |
| 2026-05-05 12:36 | 29.17868 | -68.82073 | 37124 ft | 451 kts | 178° |
| 2026-05-05 12:36 | 29.11710 | -68.80660 | 37133 ft | 450 kts | 178° |
| 2026-05-05 12:37 | 29.05545 | -68.79254 | 37135 ft | 451 kts | 178° |
| 2026-05-05 12:37 | 28.99392 | -68.77838 | 37130 ft | 451 kts | 178° |
| 2026-05-05 12:38 | 28.93276 | -68.76438 | 37133 ft | 451 kts | 178° |
| 2026-05-05 12:38 | 28.87126 | -68.75028 | 37128 ft | 450 kts | 178° |
| 2026-05-05 12:39 | 28.80967 | -68.73628 | 37127 ft | 451 kts | 178° |
| 2026-05-05 12:39 | 28.74814 | -68.72248 | 37123 ft | 450 kts | 178° |
| 2026-05-05 12:40 | 28.68693 | -68.70872 | 37126 ft | 451 kts | 178° |
| 2026-05-05 12:40 | 28.62508 | -68.69451 | 37122 ft | 451 kts | 178° |
| 2026-05-05 12:41 | 28.56381 | -68.68069 | 37123 ft | 451 kts | 178° |
| 2026-05-05 12:41 | 28.50204 | -68.66681 | 37123 ft | 452 kts | 178° |
| 2026-05-05 12:42 | 28.44029 | -68.65287 | 37126 ft | 452 kts | 178° |
| 2026-05-05 12:42 | 28.37891 | -68.63883 | 37126 ft | 452 kts | 178° |
| 2026-05-05 12:43 | 28.31711 | -68.62486 | 37111 ft | 454 kts | 178° |
| 2026-05-05 12:43 | 28.25497 | -68.61078 | 37119 ft | 455 kts | 178° |
| 2026-05-05 12:44 | 28.19316 | -68.59668 | 37117 ft | 455 kts | 178° |
| 2026-05-05 12:44 | 28.13100 | -68.58286 | 37115 ft | 455 kts | 178° |
| 2026-05-05 12:45 | 28.06882 | -68.56887 | 37094 ft | 455 kts | 177° |
| 2026-05-05 12:45 | 28.00630 | -68.55482 | 37115 ft | 459 kts | 177° |
| 2026-05-05 12:46 | 27.94350 | -68.54075 | 37110 ft | 460 kts | 177° |
| 2026-05-05 12:46 | 27.88067 | -68.52660 | 37095 ft | 460 kts | 177° |
| 2026-05-05 12:47 | 27.81821 | -68.51277 | 37109 ft | 460 kts | 177° |
| 2026-05-05 12:47 | 27.75508 | -68.49865 | 37100 ft | 462 kts | 177° |
| 2026-05-05 12:48 | 27.69177 | -68.48442 | 37112 ft | 464 kts | 176° |
| 2026-05-05 12:48 | 27.62868 | -68.47018 | 37112 ft | 465 kts | 176° |
| 2026-05-05 12:49 | 27.56522 | -68.45595 | 37109 ft | 464 kts | 177° |
| 2026-05-05 12:49 | 27.51235 | -68.44435 | 37107 ft | 464 kts | 177° |
| 2026-05-05 12:50 | 27.44889 | -68.43011 | 37106 ft | 466 kts | 176° |
| 2026-05-05 12:50 | 27.38530 | -68.41581 | 37102 ft | 466 kts | 176° |
| 2026-05-05 12:51 | 27.32172 | -68.40179 | 37102 ft | 466 kts | 176° |
| 2026-05-05 12:51 | 27.25806 | -68.38773 | 37100 ft | 466 kts | 176° |
| 2026-05-05 12:52 | 27.19489 | -68.37351 | 37076 ft | 466 kts | 176° |
| 2026-05-05 12:52 | 27.13105 | -68.35961 | 37095 ft | 467 kts | 176° |
| 2026-05-05 12:53 | 27.06720 | -68.34560 | 37101 ft | 467 kts | 176° |
| 2026-05-05 12:53 | 27.00369 | -68.33168 | 37100 ft | 467 kts | 176° |
| 2026-05-05 12:54 | 26.90792 | -68.30992 | 37083 ft | 467 kts | 176° |
| 2026-05-05 12:55 | 26.84399 | -68.29594 | 37095 ft | 468 kts | 176° |
| 2026-05-05 12:55 | 26.77999 | -68.28208 | 37090 ft | 468 kts | 176° |
| 2026-05-05 12:56 | 26.71600 | -68.26800 | 37094 ft | 468 kts | 176° |
| 2026-05-05 12:56 | 26.65242 | -68.25414 | 37098 ft | 468 kts | 176° |
| 2026-05-05 12:57 | 26.58836 | -68.24019 | 37086 ft | 469 kts | 176° |
| 2026-05-05 12:57 | 26.52427 | -68.22608 | 37091 ft | 469 kts | 176° |
| 2026-05-05 12:58 | 26.46023 | -68.21204 | 37093 ft | 468 kts | 176° |
| 2026-05-05 12:58 | 26.39616 | -68.19834 | 37088 ft | 469 kts | 176° |
| 2026-05-05 12:59 | 26.33216 | -68.18437 | 37048 ft | 468 kts | 175° |
| 2026-05-05 12:59 | 26.26880 | -68.17026 | 37084 ft | 465 kts | 175° |
| 2026-05-05 13:00 | 26.17353 | -68.14945 | 37089 ft | 464 kts | 176° |
| 2026-05-05 13:01 | 26.04698 | -68.12205 | 37091 ft | 464 kts | 175° |
| 2026-05-05 13:01 | 25.98336 | -68.10832 | 37088 ft | 464 kts | 176° |
| 2026-05-05 13:02 | 25.91988 | -68.09483 | 37089 ft | 464 kts | 176° |
| 2026-05-05 13:02 | 25.85681 | -68.08098 | 37093 ft | 464 kts | 176° |
| 2026-05-05 13:03 | 25.79328 | -68.06727 | 37089 ft | 464 kts | 175° |
| 2026-05-05 13:03 | 25.72984 | -68.05337 | 37070 ft | 465 kts | 175° |
| 2026-05-05 13:04 | 25.66631 | -68.03970 | 37090 ft | 465 kts | 176° |
| 2026-05-05 13:04 | 25.60269 | -68.02618 | 37092 ft | 465 kts | 175° |
| 2026-05-05 13:05 | 25.53953 | -68.01233 | 37088 ft | 466 kts | 175° |
| 2026-05-05 13:05 | 25.47579 | -67.99861 | 37083 ft | 465 kts | 175° |
| 2026-05-05 13:06 | 25.41214 | -67.98507 | 37090 ft | 466 kts | 175° |
| 2026-05-05 13:06 | 25.34850 | -67.97185 | 37088 ft | 469 kts | 175° |
| 2026-05-05 13:07 | 25.28445 | -67.95797 | 37089 ft | 469 kts | 175° |
| 2026-05-05 13:07 | 25.22029 | -67.94431 | 37092 ft | 469 kts | 175° |
| 2026-05-05 13:08 | 25.15618 | -67.93082 | 37094 ft | 469 kts | 175° |
| 2026-05-05 13:08 | 25.09186 | -67.91708 | 37093 ft | 473 kts | 174° |
| 2026-05-05 13:09 | 25.02689 | -67.90304 | 37094 ft | 476 kts | 174° |
| 2026-05-05 13:09 | 24.96232 | -67.88910 | 37091 ft | 476 kts | 175° |
| 2026-05-05 13:10 | 24.89727 | -67.87528 | 37095 ft | 476 kts | 174° |
| 2026-05-05 13:10 | 24.83227 | -67.86150 | 37094 ft | 475 kts | 175° |
| 2026-05-05 13:11 | 24.76730 | -67.84790 | 37095 ft | 474 kts | 175° |
| 2026-05-05 13:11 | 24.70247 | -67.83394 | 37098 ft | 474 kts | 174° |
| 2026-05-05 13:12 | 24.63798 | -67.82027 | 37099 ft | 474 kts | 175° |
| 2026-05-05 13:12 | 24.57320 | -67.80677 | 37095 ft | 474 kts | 175° |
| 2026-05-05 13:13 | 24.50838 | -67.79302 | 37092 ft | 474 kts | 175° |
| 2026-05-05 13:13 | 24.44363 | -67.77935 | 37098 ft | 472 kts | 175° |
| 2026-05-05 13:14 | 24.37949 | -67.76583 | 37101 ft | 472 kts | 175° |
| 2026-05-05 13:14 | 24.31499 | -67.75213 | 37096 ft | 472 kts | 175° |
| 2026-05-05 13:15 | 24.25058 | -67.73846 | 37103 ft | 472 kts | 175° |
| 2026-05-05 13:15 | 24.18606 | -67.72481 | 37091 ft | 472 kts | 176° |
| 2026-05-05 13:16 | 24.12145 | -67.71138 | 37095 ft | 472 kts | 176° |
| 2026-05-05 13:16 | 24.05733 | -67.69822 | 37098 ft | 471 kts | 176° |
| 2026-05-05 13:17 | 23.99276 | -67.68477 | 37100 ft | 472 kts | 175° |
| 2026-05-05 13:17 | 23.92823 | -67.67109 | 37079 ft | 472 kts | 176° |
| 2026-05-05 13:18 | 23.86371 | -67.65739 | 37094 ft | 473 kts | 176° |
| 2026-05-05 13:18 | 23.79947 | -67.64375 | 37099 ft | 472 kts | 176° |
| 2026-05-05 13:19 | 23.73480 | -67.63059 | 37093 ft | 472 kts | 176° |
| 2026-05-05 13:19 | 23.67014 | -67.61721 | 37092 ft | 473 kts | 176° |
| 2026-05-05 13:20 | 23.60580 | -67.60395 | 37097 ft | 472 kts | 176° |
| 2026-05-05 13:20 | 23.54109 | -67.59084 | 37097 ft | 473 kts | 176° |
| 2026-05-05 13:21 | 23.47644 | -67.57691 | 37096 ft | 473 kts | 175° |
| 2026-05-05 13:21 | 23.41212 | -67.56331 | 37099 ft | 472 kts | 176° |
| 2026-05-05 13:22 | 23.34730 | -67.55019 | 37097 ft | 472 kts | 176° |
| 2026-05-05 13:22 | 23.28260 | -67.53677 | 37086 ft | 473 kts | 175° |
| 2026-05-05 13:23 | 23.21826 | -67.52320 | 37100 ft | 473 kts | 175° |
| 2026-05-05 13:23 | 23.15345 | -67.50952 | 37090 ft | 473 kts | 176° |
| 2026-05-05 13:24 | 23.08913 | -67.49652 | 37100 ft | 473 kts | 176° |
| 2026-05-05 13:24 | 23.02441 | -67.48306 | 37104 ft | 473 kts | 176° |
| 2026-05-05 13:25 | 22.95968 | -67.46975 | 37095 ft | 473 kts | 176° |
| 2026-05-05 13:25 | 22.89511 | -67.45661 | 37141 ft | 472 kts | 176° |
| 2026-05-05 13:26 | 22.86283 | -67.45000 | 37278 ft | 472 kts | 176° |
| 2026-05-05 13:26 | 22.83057 | -67.44334 | 37406 ft | 472 kts | 176° |
| 2026-05-05 13:26 | 22.79832 | -67.43662 | 37536 ft | 472 kts | 176° |
| 2026-05-05 13:26 | 22.76600 | -67.42976 | 37667 ft | 472 kts | 176° |
| 2026-05-05 13:27 | 22.73414 | -67.42323 | 37796 ft | 471 kts | 176° |
| 2026-05-05 13:27 | 22.70190 | -67.41690 | 37908 ft | 470 kts | 176° |
| 2026-05-05 13:27 | 22.66966 | -67.41046 | 38047 ft | 470 kts | 176° |
| 2026-05-05 13:27 | 22.63746 | -67.40376 | 38178 ft | 471 kts | 176° |
| 2026-05-05 13:28 | 22.60531 | -67.39698 | 38326 ft | 470 kts | 176° |
| 2026-05-05 13:28 | 22.57319 | -67.39022 | 38449 ft | 470 kts | 176° |
| 2026-05-05 13:28 | 22.54110 | -67.38352 | 38586 ft | 469 kts | 176° |
| 2026-05-05 13:28 | 22.50899 | -67.37693 | 38723 ft | 469 kts | 176° |
| 2026-05-05 13:29 | 22.47730 | -67.37041 | 38836 ft | 469 kts | 176° |
| 2026-05-05 13:29 | 22.44534 | -67.36366 | 38983 ft | 468 kts | 176° |
| 2026-05-05 13:29 | 22.38107 | -67.35056 | 39069 ft | 467 kts | 176° |
| 2026-05-05 13:30 | 22.31697 | -67.33792 | 39091 ft | 468 kts | 176° |
| 2026-05-05 13:30 | 22.25335 | -67.32467 | 39101 ft | 468 kts | 176° |
| 2026-05-05 13:31 | 22.18925 | -67.31283 | 39104 ft | 468 kts | 176° |
| 2026-05-05 13:31 | 22.12526 | -67.29947 | 39102 ft | 468 kts | 175° |
| 2026-05-05 13:32 | 22.06130 | -67.28599 | 39094 ft | 468 kts | 176° |
| 2026-05-05 13:32 | 21.99748 | -67.27310 | 39104 ft | 469 kts | 176° |
| 2026-05-05 13:33 | 21.93322 | -67.25980 | 39103 ft | 470 kts | 176° |
| 2026-05-05 13:33 | 21.86887 | -67.24700 | 39106 ft | 469 kts | 176° |
| 2026-05-05 13:34 | 21.80506 | -67.23401 | 39105 ft | 469 kts | 175° |
| 2026-05-05 13:34 | 21.74089 | -67.22089 | 39093 ft | 470 kts | 175° |
| 2026-05-05 13:35 | 21.67644 | -67.20758 | 39110 ft | 473 kts | 175° |
| 2026-05-05 13:35 | 21.61255 | -67.18835 | 39112 ft | 484 kts | 162° |
| 2026-05-05 13:36 | 21.55069 | -67.15901 | 39108 ft | 485 kts | 163° |
| 2026-05-05 13:36 | 21.48858 | -67.13147 | 39102 ft | 486 kts | 163° |
| 2026-05-05 13:37 | 21.42655 | -67.10241 | 39104 ft | 487 kts | 162° |
| 2026-05-05 13:37 | 21.36442 | -67.07266 | 39105 ft | 488 kts | 162° |
| 2026-05-05 13:38 | 21.30237 | -67.04300 | 39101 ft | 489 kts | 162° |
| 2026-05-05 13:38 | 21.24019 | -67.01332 | 39102 ft | 488 kts | 162° |
| 2026-05-05 13:39 | 21.17834 | -66.98395 | 39105 ft | 488 kts | 162° |
| 2026-05-05 13:39 | 21.11633 | -66.95416 | 39087 ft | 489 kts | 161° |
| 2026-05-05 13:40 | 21.05403 | -66.92448 | 39099 ft | 490 kts | 162° |
| 2026-05-05 13:40 | 21.00223 | -66.89984 | 39102 ft | 490 kts | 161° |
| 2026-05-05 13:41 | 20.92982 | -66.86507 | 39104 ft | 491 kts | 161° |
| 2026-05-05 13:41 | 20.86747 | -66.83525 | 39103 ft | 491 kts | 161° |
| 2026-05-05 13:42 | 20.81522 | -66.81018 | 39103 ft | 491 kts | 161° |
| 2026-05-05 13:42 | 20.75314 | -66.78067 | 39102 ft | 491 kts | 161° |
| 2026-05-05 13:43 | 20.69047 | -66.75099 | 39103 ft | 492 kts | 161° |
| 2026-05-05 13:43 | 20.62786 | -66.72123 | 39105 ft | 492 kts | 161° |
| 2026-05-05 13:44 | 20.56537 | -66.69156 | 39103 ft | 492 kts | 161° |
| 2026-05-05 13:44 | 20.50283 | -66.66190 | 39106 ft | 492 kts | 161° |
| 2026-05-05 13:45 | 20.44058 | -66.63241 | 39102 ft | 492 kts | 161° |
| 2026-05-05 13:45 | 20.37795 | -66.60277 | 39099 ft | 492 kts | 161° |
| 2026-05-05 13:46 | 20.31512 | -66.57301 | 39102 ft | 492 kts | 161° |
| 2026-05-05 13:46 | 20.25243 | -66.54340 | 39100 ft | 492 kts | 161° |
| 2026-05-05 13:47 | 20.19017 | -66.51399 | 39100 ft | 492 kts | 161° |
| 2026-05-05 13:47 | 20.12746 | -66.48445 | 39087 ft | 492 kts | 161° |
| 2026-05-05 13:48 | 20.06475 | -66.45491 | 39100 ft | 492 kts | 160° |
| 2026-05-05 13:48 | 20.00242 | -66.42542 | 39099 ft | 492 kts | 161° |
| 2026-05-05 13:49 | 19.93970 | -66.39603 | 39101 ft | 492 kts | 161° |
| 2026-05-05 13:49 | 19.87690 | -66.36675 | 39100 ft | 492 kts | 161° |
| 2026-05-05 13:50 | 19.81456 | -66.33712 | 39100 ft | 492 kts | 160° |
| 2026-05-05 13:50 | 19.75188 | -66.30748 | 39097 ft | 492 kts | 161° |
| 2026-05-05 13:51 | 19.68921 | -66.27811 | 39100 ft | 492 kts | 161° |
| 2026-05-05 13:51 | 19.62653 | -66.24882 | 39099 ft | 492 kts | 161° |
| 2026-05-05 13:52 | 19.56365 | -66.21944 | 39100 ft | 492 kts | 161° |
| 2026-05-05 13:52 | 19.50148 | -66.19037 | 39097 ft | 492 kts | 161° |
| 2026-05-05 13:53 | 19.43883 | -66.16112 | 39095 ft | 492 kts | 160° |
| 2026-05-05 13:53 | 19.37612 | -66.13177 | 39101 ft | 491 kts | 160° |
| 2026-05-05 13:54 | 19.31382 | -66.10272 | 39099 ft | 491 kts | 160° |
| 2026-05-05 13:54 | 19.25116 | -66.07363 | 39096 ft | 491 kts | 160° |
| 2026-05-05 13:55 | 19.18844 | -66.04455 | 39099 ft | 491 kts | 161° |
| 2026-05-05 13:55 | 19.12576 | -66.01540 | 39090 ft | 492 kts | 160° |
| 2026-05-05 13:56 | 19.06354 | -65.98624 | 39094 ft | 492 kts | 160° |
| 2026-05-05 13:56 | 19.00089 | -65.95705 | 39097 ft | 492 kts | 160° |
| 2026-05-05 13:57 | 18.93820 | -65.92803 | 39095 ft | 492 kts | 160° |
| 2026-05-05 13:57 | 18.87546 | -65.89888 | 39095 ft | 492 kts | 160° |
| 2026-05-05 13:58 | 18.81273 | -65.86968 | 39085 ft | 493 kts | 160° |
| 2026-05-05 13:58 | 18.74983 | -65.84049 | 39095 ft | 493 kts | 160° |
| 2026-05-05 13:59 | 18.65582 | -65.79718 | 39096 ft | 493 kts | 160° |
| 2026-05-05 14:00 | 18.57201 | -65.75839 | 39099 ft | 494 kts | 160° |
| 2026-05-05 14:00 | 18.49831 | -65.72447 | 39100 ft | 494 kts | 160° |
| 2026-05-05 14:01 | 18.43571 | -65.69556 | 39098 ft | 494 kts | 160° |
| 2026-05-05 14:01 | 18.37267 | -65.66661 | 39102 ft | 494 kts | 160° |
| 2026-05-05 14:02 | 18.30955 | -65.63748 | 39102 ft | 494 kts | 160° |
| 2026-05-05 14:02 | 18.24651 | -65.60843 | 39099 ft | 495 kts | 160° |
| 2026-05-05 14:03 | 18.18381 | -65.57949 | 39100 ft | 494 kts | 160° |
| 2026-05-05 14:03 | 18.12081 | -65.55042 | 39094 ft | 494 kts | 159° |
| 2026-05-05 14:04 | 18.05770 | -65.52164 | 39096 ft | 494 kts | 159° |
| 2026-05-05 14:04 | 17.99454 | -65.49262 | 39100 ft | 494 kts | 159° |
| 2026-05-05 14:05 | 17.93183 | -65.46388 | 39104 ft | 494 kts | 159° |
| 2026-05-05 14:05 | 17.86870 | -65.43504 | 39092 ft | 494 kts | 159° |
| 2026-05-05 14:06 | 17.80562 | -65.40628 | 39085 ft | 494 kts | 159° |
| 2026-05-05 14:06 | 17.74258 | -65.37729 | 39098 ft | 494 kts | 159° |
| 2026-05-05 14:07 | 17.67986 | -65.34848 | 39091 ft | 494 kts | 159° |
| 2026-05-05 14:07 | 17.61674 | -65.31978 | 39095 ft | 494 kts | 159° |
| 2026-05-05 14:08 | 17.55355 | -65.29093 | 39097 ft | 494 kts | 159° |
| 2026-05-05 14:08 | 17.49080 | -65.26234 | 39097 ft | 494 kts | 159° |
| 2026-05-05 14:09 | 17.42763 | -65.23356 | 39092 ft | 495 kts | 159° |
| 2026-05-05 14:09 | 17.36441 | -65.20476 | 39095 ft | 495 kts | 159° |
| 2026-05-05 14:10 | 17.30162 | -65.17622 | 39093 ft | 495 kts | 159° |
| 2026-05-05 14:10 | 17.23843 | -65.14761 | 39094 ft | 495 kts | 159° |
| 2026-05-05 14:11 | 17.17519 | -65.11887 | 39098 ft | 495 kts | 159° |
| 2026-05-05 14:11 | 17.11212 | -65.09001 | 39092 ft | 494 kts | 159° |
| 2026-05-05 14:12 | 17.04889 | -65.06149 | 39092 ft | 495 kts | 159° |
| 2026-05-05 14:12 | 16.98567 | -65.03286 | 39100 ft | 495 kts | 159° |
| 2026-05-05 14:13 | 16.92249 | -65.00431 | 39094 ft | 495 kts | 159° |
| 2026-05-05 14:13 | 16.85959 | -64.97575 | 39095 ft | 495 kts | 159° |
| 2026-05-05 14:14 | 16.79627 | -64.94713 | 39092 ft | 495 kts | 159° |
| 2026-05-05 14:14 | 16.73322 | -64.91875 | 39089 ft | 495 kts | 158° |
| 2026-05-05 14:15 | 16.67003 | -64.88999 | 39093 ft | 495 kts | 158° |
| 2026-05-05 14:15 | 16.60683 | -64.86130 | 39097 ft | 495 kts | 158° |
| 2026-05-05 14:16 | 16.54383 | -64.83313 | 39093 ft | 495 kts | 158° |
| 2026-05-05 14:16 | 16.48064 | -64.80441 | 39092 ft | 495 kts | 158° |
| 2026-05-05 14:17 | 16.41735 | -64.77603 | 39092 ft | 495 kts | 159° |
| 2026-05-05 14:17 | 16.35434 | -64.74777 | 39089 ft | 495 kts | 158° |
| 2026-05-05 14:18 | 16.29107 | -64.71934 | 39096 ft | 495 kts | 158° |
| 2026-05-05 14:18 | 16.22778 | -64.69095 | 39089 ft | 495 kts | 158° |
| 2026-05-05 14:19 | 16.16433 | -64.66251 | 39089 ft | 495 kts | 158° |
| 2026-05-05 14:19 | 16.10138 | -64.63429 | 39084 ft | 495 kts | 158° |
| 2026-05-05 14:20 | 16.03799 | -64.60598 | 39094 ft | 495 kts | 158° |
| 2026-05-05 14:20 | 15.97465 | -64.57762 | 39091 ft | 495 kts | 158° |
| 2026-05-05 14:21 | 15.91120 | -64.54923 | 39087 ft | 495 kts | 158° |
| 2026-05-05 14:21 | 15.84785 | -64.52091 | 39092 ft | 495 kts | 158° |
| 2026-05-05 14:22 | 15.78493 | -64.49265 | 39078 ft | 495 kts | 158° |
| 2026-05-05 14:22 | 15.72155 | -64.46418 | 39092 ft | 496 kts | 158° |
| 2026-05-05 14:23 | 15.65817 | -64.43580 | 39090 ft | 496 kts | 158° |
| 2026-05-05 14:23 | 15.59519 | -64.40761 | 39091 ft | 496 kts | 158° |
| 2026-05-05 14:24 | 15.53160 | -64.37947 | 39084 ft | 496 kts | 158° |
| 2026-05-05 14:24 | 15.46804 | -64.35158 | 39090 ft | 495 kts | 158° |
| 2026-05-05 14:25 | 15.40449 | -64.32347 | 39086 ft | 496 kts | 158° |
| 2026-05-05 14:25 | 15.34129 | -64.29544 | 39088 ft | 496 kts | 158° |
| 2026-05-05 14:26 | 15.27801 | -64.26653 | 39087 ft | 497 kts | 157° |
| 2026-05-05 14:26 | 15.21442 | -64.23842 | 39084 ft | 497 kts | 158° |
| 2026-05-05 14:27 | 15.15093 | -64.21016 | 39087 ft | 497 kts | 158° |
| 2026-05-05 14:27 | 15.08719 | -64.18223 | 39085 ft | 497 kts | 158° |
| 2026-05-05 14:28 | 15.02357 | -64.15407 | 39083 ft | 496 kts | 156° |
| 2026-05-05 14:28 | 14.96276 | -64.11990 | 39088 ft | 499 kts | 149° |
| 2026-05-05 14:29 | 14.90314 | -64.08381 | 39081 ft | 499 kts | 151° |
| 2026-05-05 14:29 | 14.84309 | -64.04785 | 39088 ft | 498 kts | 149° |
| 2026-05-05 14:30 | 14.78360 | -64.01140 | 39093 ft | 497 kts | 149° |
| 2026-05-05 14:30 | 14.73441 | -63.98045 | 39083 ft | 498 kts | 148° |
| 2026-05-05 14:31 | 14.67490 | -63.94324 | 39074 ft | 499 kts | 149° |
| 2026-05-05 14:31 | 14.60579 | -63.90027 | 39080 ft | 497 kts | 149° |
| 2026-05-05 14:32 | 14.55620 | -63.86951 | 39084 ft | 497 kts | 149° |
| 2026-05-05 14:32 | 14.49663 | -63.83317 | 39091 ft | 498 kts | 149° |
| 2026-05-05 14:33 | 14.43741 | -63.79672 | 39085 ft | 499 kts | 149° |
| 2026-05-05 14:33 | 14.37802 | -63.75975 | 39085 ft | 498 kts | 149° |
| 2026-05-05 14:34 | 14.31854 | -63.72334 | 39090 ft | 496 kts | 149° |
| 2026-05-05 14:34 | 14.25933 | -63.68648 | 39073 ft | 497 kts | 149° |
| 2026-05-05 14:35 | 14.19989 | -63.64944 | 39074 ft | 499 kts | 149° |
| 2026-05-05 14:35 | 14.14047 | -63.61326 | 39088 ft | 497 kts | 149° |
| 2026-05-05 14:36 | 14.08090 | -63.57724 | 39083 ft | 496 kts | 149° |
| 2026-05-05 14:36 | 14.02167 | -63.54063 | 39077 ft | 496 kts | 149° |
| 2026-05-05 14:37 | 13.96219 | -63.50406 | 39085 ft | 499 kts | 149° |
| 2026-05-05 14:37 | 13.90244 | -63.46791 | 39083 ft | 497 kts | 149° |
| 2026-05-05 14:38 | 13.84332 | -63.43108 | 39083 ft | 494 kts | 149° |
| 2026-05-05 14:38 | 13.78450 | -63.39524 | 39090 ft | 495 kts | 149° |
| 2026-05-05 14:39 | 13.72522 | -63.35897 | 39078 ft | 497 kts | 148° |
| 2026-05-05 14:39 | 13.66589 | -63.32244 | 39080 ft | 496 kts | 149° |
| 2026-05-05 14:40 | 13.60657 | -63.28600 | 39084 ft | 495 kts | 148° |
| 2026-05-05 14:40 | 13.54756 | -63.24957 | 39090 ft | 495 kts | 149° |
| 2026-05-05 14:41 | 13.48822 | -63.21360 | 39088 ft | 496 kts | 149° |
| 2026-05-05 14:41 | 13.42900 | -63.17764 | 39080 ft | 497 kts | 149° |
| 2026-05-05 14:42 | 13.36968 | -63.14106 | 39081 ft | 496 kts | 148° |
| 2026-05-05 14:42 | 13.31053 | -63.10479 | 39084 ft | 495 kts | 148° |
| 2026-05-05 14:43 | 13.25119 | -63.06850 | 39081 ft | 496 kts | 148° |
| 2026-05-05 14:43 | 13.19166 | -63.03219 | 39084 ft | 498 kts | 149° |
| 2026-05-05 14:44 | 13.13181 | -62.99630 | 39083 ft | 498 kts | 149° |
| 2026-05-05 14:44 | 13.07246 | -62.96059 | 39081 ft | 496 kts | 148° |
| 2026-05-05 14:45 | 13.01334 | -62.92392 | 39085 ft | 496 kts | 148° |
| 2026-05-05 14:45 | 12.95401 | -62.88751 | 39081 ft | 497 kts | 149° |
| 2026-05-05 14:46 | 12.89418 | -62.85166 | 39079 ft | 497 kts | 148° |
| 2026-05-05 14:46 | 12.83527 | -62.81528 | 39081 ft | 496 kts | 149° |
| 2026-05-05 14:47 | 12.77568 | -62.77946 | 39086 ft | 497 kts | 149° |
| 2026-05-05 14:47 | 12.71592 | -62.74367 | 39084 ft | 498 kts | 148° |
| 2026-05-05 14:48 | 12.65648 | -62.70706 | 39082 ft | 498 kts | 148° |
| 2026-05-05 14:48 | 12.59675 | -62.67092 | 39081 ft | 498 kts | 148° |
| 2026-05-05 14:49 | 12.53750 | -62.63506 | 39080 ft | 497 kts | 149° |
| 2026-05-05 14:49 | 12.47779 | -62.59924 | 39080 ft | 497 kts | 148° |
| 2026-05-05 14:50 | 12.41813 | -62.56305 | 39080 ft | 498 kts | 148° |
| 2026-05-05 14:50 | 12.35869 | -62.52653 | 39076 ft | 498 kts | 148° |
| 2026-05-05 14:51 | 12.29892 | -62.49050 | 39077 ft | 498 kts | 148° |
| 2026-05-05 14:51 | 12.23965 | -62.45446 | 39074 ft | 498 kts | 148° |
| 2026-05-05 14:52 | 12.17988 | -62.41853 | 39077 ft | 498 kts | 148° |
| 2026-05-05 14:52 | 12.12022 | -62.38240 | 39077 ft | 498 kts | 148° |
| 2026-05-05 14:53 | 12.08885 | -62.36761 | 39023 ft | 497 kts | 165° |
| 2026-05-05 14:53 | 12.05538 | -62.36130 | 39047 ft | 485 kts | 174° |
| 2026-05-05 14:53 | 12.02206 | -62.35898 | 38912 ft | 488 kts | 178° |
| 2026-05-05 14:53 | 11.98813 | -62.35817 | 38370 ft | 487 kts | 179° |
| 2026-05-05 14:54 | 11.95411 | -62.35804 | 37752 ft | 487 kts | 180° |
| 2026-05-05 14:54 | 11.92023 | -62.35819 | 37159 ft | 487 kts | 180° |
| 2026-05-05 14:54 | 11.88635 | -62.35843 | 36583 ft | 487 kts | 180° |
| 2026-05-05 14:54 | 11.85244 | -62.35870 | 36020 ft | 487 kts | 180° |
| 2026-05-05 14:55 | 11.81851 | -62.35897 | 35471 ft | 488 kts | 180° |
| 2026-05-05 14:55 | 11.78454 | -62.35925 | 34933 ft | 489 kts | 180° |
| 2026-05-05 14:55 | 11.75044 | -62.35951 | 34406 ft | 489 kts | 179° |
| 2026-05-05 14:55 | 11.71641 | -62.35974 | 33847 ft | 489 kts | 179° |
| 2026-05-05 14:56 | 11.68270 | -62.35997 | 33267 ft | 490 kts | 179° |
| 2026-05-05 14:56 | 11.64847 | -62.36018 | 32682 ft | 491 kts | 180° |
| 2026-05-05 14:56 | 11.61439 | -62.36037 | 32113 ft | 491 kts | 180° |
| 2026-05-05 14:56 | 11.58007 | -62.36055 | 31559 ft | 492 kts | 180° |
| 2026-05-05 14:57 | 11.54583 | -62.36069 | 31007 ft | 492 kts | 180° |
| 2026-05-05 14:57 | 11.51163 | -62.36079 | 30472 ft | 491 kts | 180° |
| 2026-05-05 14:57 | 11.47744 | -62.36086 | 29912 ft | 491 kts | 180° |
| 2026-05-05 14:57 | 11.44334 | -62.36089 | 29290 ft | 491 kts | 180° |
| 2026-05-05 14:58 | 11.40904 | -62.36091 | 28687 ft | 491 kts | 180° |
| 2026-05-05 14:58 | 11.37533 | -62.36090 | 28106 ft | 491 kts | 180° |
| 2026-05-05 14:58 | 11.34109 | -62.36087 | 27520 ft | 491 kts | 180° |
| 2026-05-05 14:58 | 11.30697 | -62.36081 | 26959 ft | 489 kts | 180° |
| 2026-05-05 14:59 | 11.27279 | -62.36071 | 26409 ft | 489 kts | 180° |
| 2026-05-05 14:59 | 11.23870 | -62.36048 | 25860 ft | 489 kts | 179° |
| 2026-05-05 14:59 | 11.20513 | -62.35859 | 25331 ft | 488 kts | 174° |
| 2026-05-05 14:59 | 11.17160 | -62.35328 | 24812 ft | 484 kts | 168° |
| 2026-05-05 15:00 | 11.14000 | -62.34443 | 24321 ft | 456 kts | 161° |
| 2026-05-05 15:00 | 11.12068 | -62.33694 | 24015 ft | 440 kts | 157° |
| 2026-05-05 15:00 | 11.08462 | -62.31847 | 23376 ft | 430 kts | 150° |
| 2026-05-05 15:00 | 11.05955 | -62.30218 | 22851 ft | 426 kts | 146° |
| 2026-05-05 15:01 | 11.03582 | -62.28417 | 22202 ft | 423 kts | 141° |
| 2026-05-05 15:01 | 11.01345 | -62.26487 | 21443 ft | 419 kts | 137° |
| 2026-05-05 15:01 | 10.99260 | -62.24476 | 20720 ft | 414 kts | 134° |
| 2026-05-05 15:01 | 10.97282 | -62.22375 | 20011 ft | 408 kts | 131° |
| 2026-05-05 15:02 | 10.95414 | -62.20223 | 19319 ft | 403 kts | 129° |
| 2026-05-05 15:02 | 10.93641 | -62.18029 | 18632 ft | 398 kts | 127° |
| 2026-05-05 15:02 | 10.91948 | -62.15807 | 17914 ft | 394 kts | 125° |
| 2026-05-05 15:02 | 10.90351 | -62.13602 | 17167 ft | 390 kts | 124° |
| 2026-05-05 15:03 | 10.88796 | -62.11359 | 16431 ft | 384 kts | 123° |
| 2026-05-05 15:03 | 10.87302 | -62.09120 | 15706 ft | 379 kts | 122° |
| 2026-05-05 15:03 | 10.85866 | -62.06897 | 15005 ft | 374 kts | 121° |
| 2026-05-05 15:03 | 10.84474 | -62.04685 | 14314 ft | 369 kts | 121° |
| 2026-05-05 15:04 | 10.83119 | -62.02483 | 13597 ft | 364 kts | 120° |
| 2026-05-05 15:04 | 10.81803 | -62.00306 | 12853 ft | 359 kts | 120° |
| 2026-05-05 15:04 | 10.80534 | -61.98176 | 12121 ft | 353 kts | 120° |
| 2026-05-05 15:04 | 10.79278 | -61.96042 | 11398 ft | 348 kts | 120° |
| 2026-05-05 15:05 | 10.76850 | -61.91861 | 9999 ft | 338 kts | 120° |
| 2026-05-05 15:05 | 10.75680 | -61.89829 | 9154 ft | 328 kts | 120° |
| 2026-05-05 15:05 | 10.74541 | -61.87851 | 8271 ft | 320 kts | 120° |
| 2026-05-05 15:06 | 10.73428 | -61.85915 | 7448 ft | 313 kts | 120° |
| 2026-05-05 15:06 | 10.72336 | -61.84017 | 6621 ft | 309 kts | 120° |
| 2026-05-05 15:06 | 10.71259 | -61.82147 | 5800 ft | 304 kts | 120° |
| 2026-05-05 15:06 | 10.70224 | -61.80350 | 5290 ft | 290 kts | 119° |
| 2026-05-05 15:07 | 10.69246 | -61.78651 | 5149 ft | 266 kts | 119° |
| 2026-05-05 15:07 | 10.68324 | -61.77043 | 5087 ft | 262 kts | 119° |
| 2026-05-05 15:07 | 10.67406 | -61.75441 | 5004 ft | 262 kts | 119° |
| 2026-05-05 15:07 | 10.66486 | -61.73838 | 4890 ft | 262 kts | 119° |
| 2026-05-05 15:08 | 10.65571 | -61.72241 | 4779 ft | 261 kts | 119° |
| 2026-05-05 15:08 | 10.64659 | -61.70648 | 4661 ft | 260 kts | 119° |
| 2026-05-05 15:08 | 10.63763 | -61.69079 | 4526 ft | 259 kts | 118° |
| 2026-05-05 15:08 | 10.62862 | -61.67500 | 4424 ft | 258 kts | 118° |
| 2026-05-05 15:09 | 10.61957 | -61.65918 | 4268 ft | 258 kts | 118° |
| 2026-05-05 15:09 | 10.61058 | -61.64351 | 4196 ft | 257 kts | 119° |
| 2026-05-05 15:09 | 10.60146 | -61.62781 | 4182 ft | 258 kts | 119° |
| 2026-05-05 15:09 | 10.59305 | -61.61180 | 4148 ft | 257 kts | 107° |
| 2026-05-05 15:10 | 10.59211 | -61.59400 | 4097 ft | 254 kts | 80° |
| 2026-05-05 15:10 | 10.59563 | -61.57630 | 4029 ft | 257 kts | 84° |
| 2026-05-05 15:10 | 10.59564 | -61.55823 | 3781 ft | 255 kts | 94° |
| 2026-05-05 15:10 | 10.59461 | -61.54072 | 3472 ft | 246 kts | 91° |
| 2026-05-05 15:11 | 10.59485 | -61.52368 | 3203 ft | 236 kts | 88° |
| 2026-05-05 15:11 | 10.59521 | -61.50728 | 2908 ft | 228 kts | 89° |
| 2026-05-05 15:11 | 10.59521 | -61.49144 | 2625 ft | 221 kts | 91° |
| 2026-05-05 15:11 | 10.59521 | -61.47609 | 2345 ft | 214 kts | 90° |
| 2026-05-05 15:12 | 10.59526 | -61.46133 | 2087 ft | 200 kts | 90° |
| 2026-05-05 15:12 | 10.59526 | -61.44808 | 1896 ft | 176 kts | 91° |
| 2026-05-05 15:12 | 10.59529 | -61.43616 | 1666 ft | 162 kts | 89° |
| 2026-05-05 15:12 | 10.59534 | -61.42484 | 1389 ft | 160 kts | 89° |
| 2026-05-05 15:13 | 10.59536 | -61.41381 | 1162 ft | 151 kts | 90° |
| 2026-05-05 15:13 | 10.59535 | -61.40337 | 999 ft | 148 kts | 90° |
| 2026-05-05 15:13 | 10.59540 | -61.39325 | 823 ft | 137 kts | 88° |
| 2026-05-05 15:13 | 10.59540 | -61.38385 | 666 ft | 132 kts | 89° |
| 2026-05-05 15:14 | 10.59541 | -61.37430 | 519 ft | 141 kts | 90° |
| 2026-05-05 15:14 | 10.59532 | -61.36444 | 307 ft | 134 kts | 91° |
| 2026-05-05 15:14 | 10.59533 | -61.35521 | 135 ft | 129 kts | 91° |
| 2026-05-05 15:14 | 10.59538 | -61.34646 | 28 ft | 113 kts | 91° |
| 2026-05-05 15:15 | 10.59537 | -61.34011 | 23 ft | 70 kts | 90° |
| 2026-05-05 15:15 | 10.59538 | -61.33624 | 24 ft | 34 kts | 88° |
| 2026-05-05 15:15 | 10.59577 | -61.33505 | 23 ft | 13 kts | 32° |
| 2026-05-05 15:15 | 10.59656 | -61.33457 | 25 ft | 12 kts | 30° |
| 2026-05-05 15:16 | 10.59704 | -61.33466 | 27 ft | 8 kts | 295° |
| 2026-05-05 15:16 | 10.59710 | -61.33543 | 22 ft | 14 kts | 271° |
| 2026-05-05 15:16 | 10.59709 | -61.33659 | 22 ft | 19 kts | 270° |
| 2026-05-05 15:16 | 10.59715 | -61.33728 | 23 ft | 6 kts | 306° |
| 2026-05-05 15:17 | 10.59768 | -61.33737 | 26 ft | 9 kts | 359° |
| 2026-05-05 15:17 | 10.59834 | -61.33740 | 23 ft | 9 kts | 360° |
| 2026-05-05 15:17 | 10.59888 | -61.33742 | 24 ft | 7 kts | 343° |
| 2026-05-05 15:17 | 10.59926 | -61.33774 | 25 ft | 7 kts | 309° |
| 2026-05-05 15:18 | 10.59945 | -61.33800 | 23 ft | 2 kts | 307° |
| 2026-05-05 15:18 | 10.59953 | -61.33810 | 25 ft | 1 kts | 306° |
| 2026-05-05 15:18 | 10.59957 | -61.33816 | 24 ft | 1 kts | 306° |
| 2026-05-05 15:18 | 10.59960 | -61.33819 | 25 ft | 0 kts | 308° |
| 2026-05-05 15:19 | 10.59960 | -61.33820 | 25 ft | 0 kts | 308° |